Terminal Aerodrome Forecast
Issued by NWS

Home | Current Version | Previous Version | Text Only | Print | Product List | Glossary On
Versions: 1 2 3 4 5 6 7 8 9 10 11 12 13 14 15 16 17 18 19 20 21
000
FTUS43 KIND 031700
TAFHUF
TAF
KHUF 031727Z 0318/0418 05005KT P6SM BKN025 BKN040
     FM031900 04007KT P6SM SCT035 BKN050
     FM040300 03005KT P6SM SCT060 SCT250
     FM040900 02003KT 3SM BR FEW050 SCT250
     FM041400 36005KT P6SM FEW050 SCT250=

USA.gov is the U.S. government's official web portal to all federal, state and local government web resources and services.